sensor_id;sensor_type;location;lat;lon;timestamp;P1;durP1;ratioP1;P2;durP2;ratioP2
12048;SDS011;6085;49.452;8.502;2022-08-04T00:04:11;2.78;;;2.58;;
12048;SDS011;6085;49.452;8.502;2022-08-04T00:08:18;2.92;;;2.72;;
12048;SDS011;6085;49.452;8.502;2022-08-04T00:12:26;3.83;;;2.90;;
12048;SDS011;6085;49.452;8.502;2022-08-04T00:16:32;3.95;;;2.88;;
12048;SDS011;6085;49.452;8.502;2022-08-04T00:20:38;2.65;;;2.45;;
12048;SDS011;6085;49.452;8.502;2022-08-04T00:24:41;3.55;;;2.70;;
12048;SDS011;6085;49.452;8.502;2022-08-04T00:28:43;3.03;;;2.78;;
12048;SDS011;6085;49.452;8.502;2022-08-04T00:32:46;2.92;;;2.72;;
12048;SDS011;6085;49.452;8.502;2022-08-04T00:36:49;4.47;;;3.05;;
12048;SDS011;6085;49.452;8.502;2022-08-04T00:40:55;3.17;;;2.90;;
12048;SDS011;6085;49.452;8.502;2022-08-04T00:45:17;3.15;;;2.85;;
12048;SDS011;6085;49.452;8.502;2022-08-04T00:50:04;3.88;;;2.92;;
12048;SDS011;6085;49.452;8.502;2022-08-04T00:54:11;2.63;;;2.42;;
12048;SDS011;6085;49.452;8.502;2022-08-04T00:58:28;3.03;;;2.72;;
12048;SDS011;6085;49.452;8.502;2022-08-04T01:02:50;3.10;;;2.90;;
12048;SDS011;6085;49.452;8.502;2022-08-04T01:07:14;3.03;;;2.72;;
12048;SDS011;6085;49.452;8.502;2022-08-04T01:11:34;3.10;;;2.80;;
12048;SDS011;6085;49.452;8.502;2022-08-04T01:15:48;2.78;;;2.58;;
12048;SDS011;6085;49.452;8.502;2022-08-04T01:20:02;3.30;;;3.00;;
12048;SDS011;6085;49.452;8.502;2022-08-04T01:24:28;3.00;;;2.75;;
12048;SDS011;6085;49.452;8.502;2022-08-04T01:28:43;5.72;;;3.20;;
12048;SDS011;6085;49.452;8.502;2022-08-04T01:33:04;4.25;;;3.50;;
12048;SDS011;6085;49.452;8.502;2022-08-04T01:37:15;4.88;;;3.70;;
12048;SDS011;6085;49.452;8.502;2022-08-04T01:41:26;3.83;;;3.30;;
12048;SDS011;6085;49.452;8.502;2022-08-04T01:45:29;3.78;;;2.97;;
12048;SDS011;6085;49.452;8.502;2022-08-04T01:49:31;5.10;;;3.25;;
12048;SDS011;6085;49.452;8.502;2022-08-04T01:53:34;3.63;;;3.20;;
12048;SDS011;6085;49.452;8.502;2022-08-04T01:57:41;7.10;;;3.20;;
12048;SDS011;6085;49.452;8.502;2022-08-04T02:01:45;3.78;;;3.30;;
12048;SDS011;6085;49.452;8.502;2022-08-04T02:05:48;4.03;;;3.08;;
12048;SDS011;6085;49.452;8.502;2022-08-04T02:09:58;4.00;;;3.40;;
12048;SDS011;6085;49.452;8.502;2022-08-04T02:14:05;4.22;;;3.05;;
12048;SDS011;6085;49.452;8.502;2022-08-04T02:18:41;5.10;;;3.13;;
12048;SDS011;6085;49.452;8.502;2022-08-04T02:22:58;3.33;;;3.03;;
12048;SDS011;6085;49.452;8.502;2022-08-04T02:27:01;3.72;;;3.42;;
12048;SDS011;6085;49.452;8.502;2022-08-04T02:31:13;3.50;;;3.13;;
12048;SDS011;6085;49.452;8.502;2022-08-04T02:35:24;3.88;;;3.55;;
12048;SDS011;6085;49.452;8.502;2022-08-04T02:39:29;3.83;;;2.88;;
12048;SDS011;6085;49.452;8.502;2022-08-04T02:43:34;3.38;;;2.88;;
12048;SDS011;6085;49.452;8.502;2022-08-04T02:47:36;4.40;;;3.20;;
12048;SDS011;6085;49.452;8.502;2022-08-04T02:51:41;3.45;;;3.15;;
12048;SDS011;6085;49.452;8.502;2022-08-04T02:55:45;3.78;;;3.20;;
12048;SDS011;6085;49.452;8.502;2022-08-04T02:59:52;3.38;;;2.97;;
12048;SDS011;6085;49.452;8.502;2022-08-04T03:04:11;4.32;;;3.60;;
12048;SDS011;6085;49.452;8.502;2022-08-04T03:13:16;4.47;;;3.15;;
12048;SDS011;6085;49.452;8.502;2022-08-04T03:18:09;4.53;;;3.60;;
12048;SDS011;6085;49.452;8.502;2022-08-04T03:22:40;4.75;;;3.30;;
12048;SDS011;6085;49.452;8.502;2022-08-04T03:27:10;3.53;;;3.22;;
12048;SDS011;6085;49.452;8.502;2022-08-04T03:31:40;3.90;;;3.10;;
12048;SDS011;6085;49.452;8.502;2022-08-04T03:36:17;4.57;;;3.20;;
12048;SDS011;6085;49.452;8.502;2022-08-04T03:40:52;4.00;;;3.28;;
12048;SDS011;6085;49.452;8.502;2022-08-04T03:45:15;5.20;;;3.33;;
12048;SDS011;6085;49.452;8.502;2022-08-04T03:50:00;4.32;;;3.10;;
12048;SDS011;6085;49.452;8.502;2022-08-04T03:54:28;3.47;;;3.10;;
12048;SDS011;6085;49.452;8.502;2022-08-04T03:58:51;3.85;;;3.10;;
12048;SDS011;6085;49.452;8.502;2022-08-04T04:03:15;4.00;;;2.80;;
12048;SDS011;6085;49.452;8.502;2022-08-04T04:12:27;3.45;;;2.65;;
12048;SDS011;6085;49.452;8.502;2022-08-04T04:16:57;2.97;;;2.78;;
12048;SDS011;6085;49.452;8.502;2022-08-04T04:25:34;4.07;;;3.22;;
12048;SDS011;6085;49.452;8.502;2022-08-04T04:29:59;3.42;;;2.80;;
12048;SDS011;6085;49.452;8.502;2022-08-04T04:34:07;3.90;;;2.95;;
12048;SDS011;6085;49.452;8.502;2022-08-04T04:42:57;4.25;;;3.30;;
12048;SDS011;6085;49.452;8.502;2022-08-04T04:47:15;4.07;;;3.42;;
12048;SDS011;6085;49.452;8.502;2022-08-04T04:51:27;7.18;;;3.78;;
12048;SDS011;6085;49.452;8.502;2022-08-04T04:55:38;7.97;;;3.72;;
12048;SDS011;6085;49.452;8.502;2022-08-04T04:59:44;4.00;;;3.60;;
12048;SDS011;6085;49.452;8.502;2022-08-04T05:03:59;3.63;;;3.33;;
12048;SDS011;6085;49.452;8.502;2022-08-04T05:08:25;5.47;;;3.45;;
12048;SDS011;6085;49.452;8.502;2022-08-04T05:12:55;5.22;;;3.72;;
12048;SDS011;6085;49.452;8.502;2022-08-04T05:17:14;3.33;;;2.90;;
12048;SDS011;6085;49.452;8.502;2022-08-04T05:21:27;3.67;;;3.10;;
12048;SDS011;6085;49.452;8.502;2022-08-04T05:25:38;3.38;;;3.00;;
12048;SDS011;6085;49.452;8.502;2022-08-04T05:29:49;5.18;;;3.95;;
12048;SDS011;6085;49.452;8.502;2022-08-04T05:33:54;8.65;;;3.65;;
12048;SDS011;6085;49.452;8.502;2022-08-04T05:37:58;3.42;;;3.13;;
12048;SDS011;6085;49.452;8.502;2022-08-04T05:42:03;3.38;;;3.08;;
12048;SDS011;6085;49.452;8.502;2022-08-04T05:46:07;5.65;;;3.58;;
12048;SDS011;6085;49.452;8.502;2022-08-04T05:50:11;4.53;;;3.80;;
12048;SDS011;6085;49.452;8.502;2022-08-04T05:54:14;5.30;;;3.38;;
12048;SDS011;6085;49.452;8.502;2022-08-04T05:58:18;6.03;;;4.13;;
12048;SDS011;6085;49.452;8.502;2022-08-04T06:02:22;5.20;;;3.80;;
12048;SDS011;6085;49.452;8.502;2022-08-04T06:06:25;3.78;;;3.33;;
12048;SDS011;6085;49.452;8.502;2022-08-04T06:10:28;5.60;;;3.95;;
12048;SDS011;6085;49.452;8.502;2022-08-04T06:14:35;8.05;;;3.80;;
12048;SDS011;6085;49.452;8.502;2022-08-04T06:18:42;5.43;;;3.83;;
12048;SDS011;6085;49.452;8.502;2022-08-04T06:22:46;5.32;;;3.40;;
12048;SDS011;6085;49.452;8.502;2022-08-04T06:26:52;4.72;;;3.00;;
12048;SDS011;6085;49.452;8.502;2022-08-04T06:30:55;6.38;;;3.33;;
12048;SDS011;6085;49.452;8.502;2022-08-04T06:35:04;7.82;;;3.80;;
12048;SDS011;6085;49.452;8.502;2022-08-04T06:39:08;7.65;;;3.90;;
12048;SDS011;6085;49.452;8.502;2022-08-04T06:43:11;4.80;;;3.25;;
12048;SDS011;6085;49.452;8.502;2022-08-04T06:47:13;3.92;;;3.13;;
12048;SDS011;6085;49.452;8.502;2022-08-04T06:51:20;4.45;;;3.10;;
12048;SDS011;6085;49.452;8.502;2022-08-04T06:55:23;2.92;;;2.60;;
12048;SDS011;6085;49.452;8.502;2022-08-04T06:59:25;4.00;;;3.03;;
12048;SDS011;6085;49.452;8.502;2022-08-04T07:03:28;4.93;;;2.80;;
12048;SDS011;6085;49.452;8.502;2022-08-04T07:07:33;5.03;;;2.90;;
12048;SDS011;6085;49.452;8.502;2022-08-04T07:11:35;4.57;;;2.92;;
12048;SDS011;6085;49.452;8.502;2022-08-04T07:15:40;5.68;;;3.00;;
12048;SDS011;6085;49.452;8.502;2022-08-04T07:19:44;4.18;;;2.97;;
12048;SDS011;6085;49.452;8.502;2022-08-04T07:23:48;6.20;;;2.85;;
12048;SDS011;6085;49.452;8.502;2022-08-04T07:27:50;6.32;;;2.92;;
12048;SDS011;6085;49.452;8.502;2022-08-04T07:31:52;2.92;;;2.20;;
12048;SDS011;6085;49.452;8.502;2022-08-04T07:35:57;2.22;;;2.03;;
12048;SDS011;6085;49.452;8.502;2022-08-04T07:40:03;2.65;;;1.90;;
12048;SDS011;6085;49.452;8.502;2022-08-04T07:44:06;3.58;;;2.10;;
12048;SDS011;6085;49.452;8.502;2022-08-04T07:48:09;4.40;;;3.28;;
12048;SDS011;6085;49.452;8.502;2022-08-04T07:52:12;2.15;;;1.95;;
12048;SDS011;6085;49.452;8.502;2022-08-04T07:56:15;3.00;;;2.22;;
12048;SDS011;6085;49.452;8.502;2022-08-04T08:00:18;2.20;;;2.00;;
12048;SDS011;6085;49.452;8.502;2022-08-04T08:04:20;2.03;;;1.92;;
12048;SDS011;6085;49.452;8.502;2022-08-04T08:08:22;2.13;;;2.03;;
12048;SDS011;6085;49.452;8.502;2022-08-04T08:12:26;3.25;;;2.17;;
12048;SDS011;6085;49.452;8.502;2022-08-04T08:16:29;3.00;;;2.47;;
12048;SDS011;6085;49.452;8.502;2022-08-04T08:20:32;4.07;;;2.70;;
12048;SDS011;6085;49.452;8.502;2022-08-04T08:24:34;2.10;;;2.00;;
12048;SDS011;6085;49.452;8.502;2022-08-04T08:28:38;2.67;;;2.10;;
12048;SDS011;6085;49.452;8.502;2022-08-04T08:32:41;2.92;;;2.35;;
12048;SDS011;6085;49.452;8.502;2022-08-04T08:36:44;2.15;;;1.95;;
12048;SDS011;6085;49.452;8.502;2022-08-04T08:40:52;2.78;;;2.50;;
12048;SDS011;6085;49.452;8.502;2022-08-04T08:49:44;3.83;;;2.20;;
12048;SDS011;6085;49.452;8.502;2022-08-04T08:58:47;2.83;;;2.00;;
12048;SDS011;6085;49.452;8.502;2022-08-04T09:03:16;2.53;;;2.20;;
12048;SDS011;6085;49.452;8.502;2022-08-04T09:07:43;2.42;;;2.22;;
12048;SDS011;6085;49.452;8.502;2022-08-04T09:12:03;6.68;;;2.40;;
12048;SDS011;6085;49.452;8.502;2022-08-04T09:16:10;3.17;;;2.20;;
12048;SDS011;6085;49.452;8.502;2022-08-04T09:20:24;2.60;;;2.40;;
12048;SDS011;6085;49.452;8.502;2022-08-04T09:24:34;2.78;;;2.20;;
12048;SDS011;6085;49.452;8.502;2022-08-04T09:28:47;2.78;;;2.50;;
12048;SDS011;6085;49.452;8.502;2022-08-04T09:32:56;2.83;;;2.63;;
12048;SDS011;6085;49.452;8.502;2022-08-04T09:37:08;2.70;;;2.40;;
12048;SDS011;6085;49.452;8.502;2022-08-04T09:41:21;2.70;;;2.50;;
12048;SDS011;6085;49.452;8.502;2022-08-04T09:45:32;2.88;;;2.60;;
12048;SDS011;6085;49.452;8.502;2022-08-04T09:49:42;2.30;;;2.17;;
12048;SDS011;6085;49.452;8.502;2022-08-04T09:53:54;4.05;;;2.67;;
12048;SDS011;6085;49.452;8.502;2022-08-04T09:58:16;3.28;;;2.85;;
12048;SDS011;6085;49.452;8.502;2022-08-04T10:02:28;3.10;;;2.40;;
12048;SDS011;6085;49.452;8.502;2022-08-04T10:06:44;2.88;;;2.67;;
12048;SDS011;6085;49.452;8.502;2022-08-04T10:11:06;2.97;;;2.60;;
12048;SDS011;6085;49.452;8.502;2022-08-04T10:15:13;2.75;;;2.55;;
12048;SDS011;6085;49.452;8.502;2022-08-04T10:19:20;2.58;;;2.38;;
12048;SDS011;6085;49.452;8.502;2022-08-04T10:23:32;2.83;;;2.35;;
12048;SDS011;6085;49.452;8.502;2022-08-04T10:27:42;2.20;;;2.10;;
12048;SDS011;6085;49.452;8.502;2022-08-04T10:31:51;3.58;;;2.70;;
12048;SDS011;6085;49.452;8.502;2022-08-04T10:35:59;2.67;;;2.47;;
12048;SDS011;6085;49.452;8.502;2022-08-04T10:40:04;2.90;;;2.60;;
12048;SDS011;6085;49.452;8.502;2022-08-04T10:44:31;3.92;;;2.65;;
12048;SDS011;6085;49.452;8.502;2022-08-04T10:48:42;2.80;;;2.60;;
12048;SDS011;6085;49.452;8.502;2022-08-04T10:52:52;2.08;;;1.98;;
12048;SDS011;6085;49.452;8.502;2022-08-04T10:57:07;3.10;;;2.00;;
12048;SDS011;6085;49.452;8.502;2022-08-04T11:01:16;2.55;;;2.35;;
12048;SDS011;6085;49.452;8.502;2022-08-04T11:05:24;2.67;;;1.92;;
12048;SDS011;6085;49.452;8.502;2022-08-04T11:09:30;2.67;;;2.15;;
12048;SDS011;6085;49.452;8.502;2022-08-04T11:13:37;2.20;;;1.90;;
12048;SDS011;6085;49.452;8.502;2022-08-04T11:17:46;2.40;;;2.17;;
12048;SDS011;6085;49.452;8.502;2022-08-04T11:21:55;2.42;;;2.17;;
12048;SDS011;6085;49.452;8.502;2022-08-04T11:25:59;3.92;;;2.33;;
12048;SDS011;6085;49.452;8.502;2022-08-04T11:30:10;3.58;;;2.03;;
12048;SDS011;6085;49.452;8.502;2022-08-04T11:34:16;2.10;;;2.00;;
12048;SDS011;6085;49.452;8.502;2022-08-04T11:38:21;2.67;;;2.22;;
12048;SDS011;6085;49.452;8.502;2022-08-04T11:42:29;2.55;;;2.25;;
12048;SDS011;6085;49.452;8.502;2022-08-04T11:46:38;2.33;;;1.90;;
12048;SDS011;6085;49.452;8.502;2022-08-04T11:50:46;2.00;;;1.67;;
12048;SDS011;6085;49.452;8.502;2022-08-04T11:54:52;1.88;;;1.73;;
12048;SDS011;6085;49.452;8.502;2022-08-04T11:58:56;2.03;;;1.58;;
12048;SDS011;6085;49.452;8.502;2022-08-04T12:03:04;3.95;;;1.50;;
12048;SDS011;6085;49.452;8.502;2022-08-04T12:07:19;2.00;;;1.50;;
12048;SDS011;6085;49.452;8.502;2022-08-04T12:11:33;1.50;;;1.40;;
12048;SDS011;6085;49.452;8.502;2022-08-04T12:15:56;1.60;;;1.50;;
12048;SDS011;6085;49.452;8.502;2022-08-04T12:20:04;1.80;;;1.70;;
12048;SDS011;6085;49.452;8.502;2022-08-04T12:24:19;2.58;;;1.58;;
12048;SDS011;6085;49.452;8.502;2022-08-04T12:28:28;1.65;;;1.55;;
12048;SDS011;6085;49.452;8.502;2022-08-04T12:32:36;1.52;;;1.42;;
12048;SDS011;6085;49.452;8.502;2022-08-04T12:36:42;1.50;;;1.40;;
12048;SDS011;6085;49.452;8.502;2022-08-04T12:40:56;1.60;;;1.50;;
12048;SDS011;6085;49.452;8.502;2022-08-04T12:45:03;2.20;;;2.00;;
12048;SDS011;6085;49.452;8.502;2022-08-04T12:49:09;2.15;;;2.03;;
12048;SDS011;6085;49.452;8.502;2022-08-04T12:53:13;2.17;;;1.95;;
12048;SDS011;6085;49.452;8.502;2022-08-04T12:57:18;1.70;;;1.60;;
12048;SDS011;6085;49.452;8.502;2022-08-04T13:01:22;2.08;;;1.70;;
12048;SDS011;6085;49.452;8.502;2022-08-04T13:05:26;1.80;;;1.70;;
12048;SDS011;6085;49.452;8.502;2022-08-04T13:09:31;1.92;;;1.83;;
12048;SDS011;6085;49.452;8.502;2022-08-04T13:13:36;2.00;;;1.80;;
12048;SDS011;6085;49.452;8.502;2022-08-04T13:17:40;1.60;;;1.50;;
12048;SDS011;6085;49.452;8.502;2022-08-04T13:21:49;4.50;;;1.77;;
12048;SDS011;6085;49.452;8.502;2022-08-04T13:25:52;1.88;;;1.77;;
12048;SDS011;6085;49.452;8.502;2022-08-04T13:29:58;2.50;;;2.00;;
12048;SDS011;6085;49.452;8.502;2022-08-04T13:34:01;1.92;;;1.83;;
12048;SDS011;6085;49.452;8.502;2022-08-04T13:38:06;2.13;;;1.92;;
12048;SDS011;6085;49.452;8.502;2022-08-04T13:42:11;3.08;;;1.92;;
12048;SDS011;6085;49.452;8.502;2022-08-04T13:46:16;4.32;;;2.20;;
12048;SDS011;6085;49.452;8.502;2022-08-04T13:50:22;2.38;;;2.03;;
12048;SDS011;6085;49.452;8.502;2022-08-04T13:54:27;2.38;;;2.20;;
12048;SDS011;6085;49.452;8.502;2022-08-04T13:58:38;2.30;;;2.00;;
12048;SDS011;6085;49.452;8.502;2022-08-04T14:02:48;2.45;;;2.25;;
12048;SDS011;6085;49.452;8.502;2022-08-04T14:07:02;2.50;;;2.00;;
12048;SDS011;6085;49.452;8.502;2022-08-04T14:11:10;2.40;;;2.20;;
12048;SDS011;6085;49.452;8.502;2022-08-04T14:15:28;2.40;;;2.13;;
12048;SDS011;6085;49.452;8.502;2022-08-04T14:23:52;2.70;;;2.10;;
12048;SDS011;6085;49.452;8.502;2022-08-04T14:27:55;2.55;;;2.35;;
12048;SDS011;6085;49.452;8.502;2022-08-04T14:32:00;2.58;;;2.00;;
12048;SDS011;6085;49.452;8.502;2022-08-04T14:36:05;2.30;;;2.08;;
12048;SDS011;6085;49.452;8.502;2022-08-04T14:40:08;3.95;;;2.50;;
12048;SDS011;6085;49.452;8.502;2022-08-04T14:44:24;2.40;;;2.28;;
12048;SDS011;6085;49.452;8.502;2022-08-04T14:48:26;2.30;;;2.15;;
12048;SDS011;6085;49.452;8.502;2022-08-04T14:52:29;2.35;;;2.22;;
12048;SDS011;6085;49.452;8.502;2022-08-04T14:56:31;2.30;;;2.10;;
12048;SDS011;6085;49.452;8.502;2022-08-04T15:00:34;3.70;;;2.20;;
12048;SDS011;6085;49.452;8.502;2022-08-04T15:04:37;2.67;;;2.30;;
12048;SDS011;6085;49.452;8.502;2022-08-04T15:08:41;2.75;;;2.00;;
12048;SDS011;6085;49.452;8.502;2022-08-04T15:12:42;2.25;;;2.08;;
12048;SDS011;6085;49.452;8.502;2022-08-04T15:16:45;2.42;;;2.22;;
12048;SDS011;6085;49.452;8.502;2022-08-04T15:20:47;2.33;;;2.15;;
12048;SDS011;6085;49.452;8.502;2022-08-04T15:24:51;2.10;;;1.90;;
12048;SDS011;6085;49.452;8.502;2022-08-04T15:28:53;2.00;;;1.80;;
12048;SDS011;6085;49.452;8.502;2022-08-04T15:33:01;3.47;;;2.10;;
12048;SDS011;6085;49.452;8.502;2022-08-04T15:37:05;3.15;;;2.15;;
12048;SDS011;6085;49.452;8.502;2022-08-04T15:41:13;2.47;;;2.17;;
12048;SDS011;6085;49.452;8.502;2022-08-04T15:45:20;2.15;;;2.05;;
12048;SDS011;6085;49.452;8.502;2022-08-04T15:49:24;2.95;;;2.00;;
12048;SDS011;6085;49.452;8.502;2022-08-04T15:53:26;2.10;;;2.00;;
12048;SDS011;6085;49.452;8.502;2022-08-04T16:06:41;2.00;;;1.90;;
12048;SDS011;6085;49.452;8.502;2022-08-04T16:10:45;2.47;;;2.10;;
12048;SDS011;6085;49.452;8.502;2022-08-04T16:14:50;2.28;;;2.10;;
12048;SDS011;6085;49.452;8.502;2022-08-04T16:18:53;2.60;;;2.20;;
12048;SDS011;6085;49.452;8.502;2022-08-04T16:22:59;2.03;;;1.92;;
12048;SDS011;6085;49.452;8.502;2022-08-04T16:27:20;2.00;;;1.90;;
12048;SDS011;6085;49.452;8.502;2022-08-04T16:31:38;2.40;;;2.20;;
12048;SDS011;6085;49.452;8.502;2022-08-04T16:35:39;3.92;;;2.20;;
12048;SDS011;6085;49.452;8.502;2022-08-04T16:39:41;2.13;;;2.03;;
12048;SDS011;6085;49.452;8.502;2022-08-04T16:43:44;2.47;;;2.28;;
12048;SDS011;6085;49.452;8.502;2022-08-04T16:48:03;2.45;;;1.95;;
12048;SDS011;6085;49.452;8.502;2022-08-04T16:52:07;2.20;;;2.00;;
12048;SDS011;6085;49.452;8.502;2022-08-04T16:56:10;2.47;;;1.95;;
12048;SDS011;6085;49.452;8.502;2022-08-04T17:00:13;2.65;;;2.20;;
12048;SDS011;6085;49.452;8.502;2022-08-04T17:04:19;3.00;;;1.85;;
12048;SDS011;6085;49.452;8.502;2022-08-04T17:08:29;2.30;;;1.83;;
12048;SDS011;6085;49.452;8.502;2022-08-04T17:12:31;2.10;;;2.00;;
12048;SDS011;6085;49.452;8.502;2022-08-04T17:16:34;1.98;;;1.88;;
12048;SDS011;6085;49.452;8.502;2022-08-04T17:20:40;2.13;;;1.95;;
12048;SDS011;6085;49.452;8.502;2022-08-04T17:24:42;1.95;;;1.85;;
12048;SDS011;6085;49.452;8.502;2022-08-04T17:28:45;2.15;;;1.85;;
12048;SDS011;6085;49.452;8.502;2022-08-04T17:32:48;2.15;;;1.70;;
12048;SDS011;6085;49.452;8.502;2022-08-04T17:36:52;3.75;;;1.85;;
12048;SDS011;6085;49.452;8.502;2022-08-04T17:40:55;2.30;;;2.13;;
12048;SDS011;6085;49.452;8.502;2022-08-04T17:45:05;2.17;;;2.00;;
12048;SDS011;6085;49.452;8.502;2022-08-04T17:49:09;2.00;;;1.90;;
12048;SDS011;6085;49.452;8.502;2022-08-04T17:53:31;2.05;;;1.95;;
12048;SDS011;6085;49.452;8.502;2022-08-04T17:57:34;1.80;;;1.70;;
12048;SDS011;6085;49.452;8.502;2022-08-04T18:01:39;2.38;;;2.00;;
12048;SDS011;6085;49.452;8.502;2022-08-04T18:05:44;1.80;;;1.70;;
12048;SDS011;6085;49.452;8.502;2022-08-04T18:09:51;2.42;;;1.88;;
12048;SDS011;6085;49.452;8.502;2022-08-04T18:13:55;2.20;;;1.85;;
12048;SDS011;6085;49.452;8.502;2022-08-04T18:17:57;2.10;;;2.00;;
12048;SDS011;6085;49.452;8.502;2022-08-04T18:21:59;1.98;;;1.88;;
12048;SDS011;6085;49.452;8.502;2022-08-04T18:26:04;2.20;;;2.10;;
12048;SDS011;6085;49.452;8.502;2022-08-04T18:30:07;1.88;;;1.77;;
12048;SDS011;6085;49.452;8.502;2022-08-04T18:34:10;2.00;;;1.90;;
12048;SDS011;6085;49.452;8.502;2022-08-04T18:38:12;2.17;;;2.08;;
12048;SDS011;6085;49.452;8.502;2022-08-04T18:42:15;2.10;;;1.90;;
12048;SDS011;6085;49.452;8.502;2022-08-04T18:46:17;2.10;;;1.90;;
12048;SDS011;6085;49.452;8.502;2022-08-04T18:50:19;2.10;;;2.00;;
12048;SDS011;6085;49.452;8.502;2022-08-04T18:54:21;2.13;;;2.03;;
12048;SDS011;6085;49.452;8.502;2022-08-04T18:58:25;2.03;;;1.92;;
12048;SDS011;6085;49.452;8.502;2022-08-04T19:02:27;2.33;;;2.17;;
12048;SDS011;6085;49.452;8.502;2022-08-04T19:06:29;1.95;;;1.85;;
12048;SDS011;6085;49.452;8.502;2022-08-04T19:10:32;2.00;;;1.90;;
12048;SDS011;6085;49.452;8.502;2022-08-04T19:14:35;2.30;;;2.10;;
12048;SDS011;6085;49.452;8.502;2022-08-04T19:18:37;2.40;;;2.20;;
12048;SDS011;6085;49.452;8.502;2022-08-04T19:22:39;2.45;;;1.88;;
12048;SDS011;6085;49.452;8.502;2022-08-04T19:26:41;1.90;;;1.80;;
12048;SDS011;6085;49.452;8.502;2022-08-04T19:30:44;2.00;;;1.90;;
12048;SDS011;6085;49.452;8.502;2022-08-04T19:34:49;1.77;;;1.67;;
12048;SDS011;6085;49.452;8.502;2022-08-04T19:38:51;2.10;;;2.00;;
12048;SDS011;6085;49.452;8.502;2022-08-04T19:42:53;2.42;;;2.22;;
12048;SDS011;6085;49.452;8.502;2022-08-04T19:46:57;2.45;;;2.25;;
12048;SDS011;6085;49.452;8.502;2022-08-04T19:50:59;2.40;;;2.20;;
12048;SDS011;6085;49.452;8.502;2022-08-04T19:55:01;2.35;;;2.15;;
12048;SDS011;6085;49.452;8.502;2022-08-04T19:59:03;2.40;;;2.20;;
12048;SDS011;6085;49.452;8.502;2022-08-04T20:03:07;2.55;;;2.25;;
12048;SDS011;6085;49.452;8.502;2022-08-04T20:07:12;2.53;;;2.20;;
12048;SDS011;6085;49.452;8.502;2022-08-04T20:11:14;2.13;;;2.03;;
12048;SDS011;6085;49.452;8.502;2022-08-04T20:15:16;2.50;;;2.30;;
12048;SDS011;6085;49.452;8.502;2022-08-04T20:19:19;2.40;;;2.22;;
12048;SDS011;6085;49.452;8.502;2022-08-04T20:23:21;3.83;;;2.58;;
12048;SDS011;6085;49.452;8.502;2022-08-04T20:27:23;3.97;;;2.42;;
12048;SDS011;6085;49.452;8.502;2022-08-04T20:31:25;2.72;;;2.35;;
12048;SDS011;6085;49.452;8.502;2022-08-04T20:35:28;2.45;;;2.30;;
12048;SDS011;6085;49.452;8.502;2022-08-04T20:39:31;2.47;;;2.15;;
12048;SDS011;6085;49.452;8.502;2022-08-04T20:43:33;2.05;;;1.95;;
12048;SDS011;6085;49.452;8.502;2022-08-04T20:47:35;2.45;;;2.30;;
12048;SDS011;6085;49.452;8.502;2022-08-04T20:51:39;2.63;;;2.40;;
12048;SDS011;6085;49.452;8.502;2022-08-04T20:55:42;3.00;;;2.70;;
12048;SDS011;6085;49.452;8.502;2022-08-04T20:59:44;2.70;;;2.47;;
12048;SDS011;6085;49.452;8.502;2022-08-04T21:03:46;2.60;;;2.30;;
12048;SDS011;6085;49.452;8.502;2022-08-04T21:08:07;2.65;;;2.42;;
12048;SDS011;6085;49.452;8.502;2022-08-04T21:12:10;2.63;;;2.40;;
12048;SDS011;6085;49.452;8.502;2022-08-04T21:16:13;2.50;;;2.28;;
12048;SDS011;6085;49.452;8.502;2022-08-04T21:20:15;2.35;;;2.15;;
12048;SDS011;6085;49.452;8.502;2022-08-04T21:24:21;4.18;;;2.45;;
12048;SDS011;6085;49.452;8.502;2022-08-04T21:28:24;3.00;;;2.22;;
12048;SDS011;6085;49.452;8.502;2022-08-04T21:32:26;3.20;;;2.15;;
12048;SDS011;6085;49.452;8.502;2022-08-04T21:36:28;2.30;;;2.10;;
12048;SDS011;6085;49.452;8.502;2022-08-04T21:40:31;2.13;;;2.00;;
12048;SDS011;6085;49.452;8.502;2022-08-04T21:44:33;2.35;;;1.92;;
12048;SDS011;6085;49.452;8.502;2022-08-04T21:48:35;2.38;;;2.17;;
12048;SDS011;6085;49.452;8.502;2022-08-04T21:52:37;2.20;;;1.92;;
12048;SDS011;6085;49.452;8.502;2022-08-04T21:56:40;1.80;;;1.70;;
12048;SDS011;6085;49.452;8.502;2022-08-04T22:00:43;2.22;;;2.00;;
12048;SDS011;6085;49.452;8.502;2022-08-04T22:04:45;4.60;;;2.22;;
12048;SDS011;6085;49.452;8.502;2022-08-04T22:08:47;2.63;;;2.40;;
12048;SDS011;6085;49.452;8.502;2022-08-04T22:12:51;6.30;;;2.60;;
12048;SDS011;6085;49.452;8.502;2022-08-04T22:16:53;2.30;;;2.10;;
12048;SDS011;6085;49.452;8.502;2022-08-04T22:20:55;3.88;;;2.50;;
12048;SDS011;6085;49.452;8.502;2022-08-04T22:24:59;4.03;;;3.13;;
12048;SDS011;6085;49.452;8.502;2022-08-04T22:29:03;5.07;;;2.80;;
12048;SDS011;6085;49.452;8.502;2022-08-04T22:33:05;6.10;;;2.95;;
12048;SDS011;6085;49.452;8.502;2022-08-04T22:37:08;6.05;;;2.45;;
12048;SDS011;6085;49.452;8.502;2022-08-04T22:41:11;3.45;;;2.40;;
12048;SDS011;6085;49.452;8.502;2022-08-04T22:45:16;3.65;;;2.35;;
12048;SDS011;6085;49.452;8.502;2022-08-04T22:49:18;3.63;;;2.35;;
12048;SDS011;6085;49.452;8.502;2022-08-04T22:53:20;4.60;;;2.60;;
12048;SDS011;6085;49.452;8.502;2022-08-04T22:57:21;4.78;;;2.60;;
12048;SDS011;6085;49.452;8.502;2022-08-04T23:01:25;5.53;;;2.60;;
12048;SDS011;6085;49.452;8.502;2022-08-04T23:05:27;4.38;;;2.60;;
12048;SDS011;6085;49.452;8.502;2022-08-04T23:09:30;4.40;;;2.70;;
12048;SDS011;6085;49.452;8.502;2022-08-04T23:13:32;5.93;;;2.47;;
12048;SDS011;6085;49.452;8.502;2022-08-04T23:17:35;6.03;;;2.50;;
12048;SDS011;6085;49.452;8.502;2022-08-04T23:21:37;4.75;;;2.80;;
12048;SDS011;6085;49.452;8.502;2022-08-04T23:25:42;4.25;;;2.78;;
12048;SDS011;6085;49.452;8.502;2022-08-04T23:29:45;4.25;;;2.70;;
12048;SDS011;6085;49.452;8.502;2022-08-04T23:33:48;3.95;;;2.60;;
12048;SDS011;6085;49.452;8.502;2022-08-04T23:37:50;7.07;;;2.50;;
12048;SDS011;6085;49.452;8.502;2022-08-04T23:41:52;3.72;;;2.10;;
12048;SDS011;6085;49.452;8.502;2022-08-04T23:45:54;4.45;;;2.20;;
12048;SDS011;6085;49.452;8.502;2022-08-04T23:49:58;2.80;;;2.00;;
12048;SDS011;6085;49.452;8.502;2022-08-04T23:54:00;13.80;;;3.28;;
12048;SDS011;6085;49.452;8.502;2022-08-04T23:58:01;3.35;;;2.10;;
